createdAt,value
2023-03-03T00:01:27.436Z,21.77
2023-03-03T00:03:57.457Z,20.63
2023-03-03T00:06:25.813Z,17.90
2023-03-03T00:08:53.621Z,17.37
2023-03-03T00:11:22.677Z,20.03
2023-03-03T00:13:52.554Z,22.47
2023-03-03T00:16:25.473Z,16.87
2023-03-03T00:18:54.268Z,16.43
2023-03-03T00:21:30.068Z,18.73
2023-03-03T00:24:18.114Z,20.70
2023-03-03T00:26:48.780Z,22.33
2023-03-03T00:29:30.914Z,16.00
2023-03-03T00:32:23.801Z,20.93
2023-03-03T00:34:52.669Z,17.27
2023-03-03T00:37:42.275Z,18.07
2023-03-03T00:40:34.233Z,17.47
2023-03-03T00:43:13.278Z,19.50
2023-03-03T00:45:44.652Z,15.80
2023-03-03T00:48:23.188Z,16.37
2023-03-03T00:50:51.770Z,18.43
2023-03-03T00:53:20.945Z,17.70
2023-03-03T00:55:50.777Z,18.63
2023-03-03T00:58:21.935Z,17.37
2023-03-03T01:00:50.699Z,16.30
2023-03-03T01:03:21.563Z,17.03
2023-03-03T01:05:51.876Z,18.37
2023-03-03T01:08:20.976Z,14.13
2023-03-03T01:10:51.814Z,18.50
2023-03-03T01:13:23.605Z,24.63
2023-03-03T01:15:51.982Z,16.73
2023-03-03T01:18:19.838Z,15.80
2023-03-03T01:20:48.240Z,20.63
2023-03-03T01:23:15.992Z,21.10
2023-03-03T01:25:43.637Z,19.87
2023-03-03T01:28:11.868Z,14.53
2023-03-03T01:30:41.231Z,17.27
2023-03-03T01:33:08.910Z,18.37
2023-03-03T01:35:36.826Z,23.03
2023-03-03T01:38:04.688Z,20.53
2023-03-03T01:40:32.657Z,17.30
2023-03-03T01:43:00.799Z,16.60
2023-03-03T01:45:30.152Z,16.53
2023-03-03T01:48:02.665Z,21.30
2023-03-03T01:50:42.776Z,18.40
2023-03-03T01:53:16.569Z,16.87
2023-03-03T01:55:45.524Z,19.20
2023-03-03T01:58:16.517Z,19.97
2023-03-03T02:00:47.725Z,18.97
2023-03-03T02:03:17.064Z,20.37
2023-03-03T02:05:45.175Z,20.83
2023-03-03T02:08:16.929Z,14.90
2023-03-03T02:10:46.030Z,17.73
2023-03-03T02:13:13.938Z,23.10
2023-03-03T02:15:41.552Z,18.07
2023-03-03T02:18:13.343Z,17.67
2023-03-03T02:20:54.772Z,17.37
2023-03-03T02:23:26.216Z,18.97
2023-03-03T02:26:06.745Z,15.27
2023-03-03T02:28:37.700Z,18.97
2023-03-03T02:31:08.347Z,18.37
2023-03-03T02:33:37.090Z,17.20
2023-03-03T02:36:04.940Z,19.97
2023-03-03T02:38:38.566Z,22.77
2023-03-03T02:41:14.118Z,16.80
2023-03-03T02:43:47.698Z,15.70
2023-03-03T02:46:15.398Z,18.37
2023-03-03T02:48:43.436Z,22.33
2023-03-03T02:51:11.262Z,20.00
2023-03-03T02:53:38.981Z,22.43
2023-03-03T02:56:12.767Z,27.20
2023-03-03T02:58:40.493Z,18.67
2023-03-03T03:01:08.666Z,16.17
2023-03-03T03:03:36.370Z,20.77
2023-03-03T03:06:04.353Z,22.00
2023-03-03T03:08:32.032Z,16.83
2023-03-03T03:11:01.145Z,19.70
2023-03-03T03:13:30.674Z,18.83
2023-03-03T03:15:58.649Z,18.20
2023-03-03T03:18:27.213Z,17.37
2023-03-03T03:20:55.231Z,17.70
2023-03-03T03:23:23.020Z,19.47
2023-03-03T03:25:51.209Z,18.10
2023-03-03T03:28:19.262Z,16.67
2023-03-03T03:30:48.605Z,26.27
2023-03-03T03:33:16.310Z,21.60
2023-03-03T03:35:45.613Z,20.50
2023-03-03T03:38:13.814Z,17.13
2023-03-03T03:40:43.355Z,21.43
2023-03-03T03:43:10.972Z,17.60
2023-03-03T03:45:38.698Z,26.57
2023-03-03T03:48:07.888Z,25.03
2023-03-03T03:50:36.926Z,19.13
2023-03-03T03:53:04.690Z,20.27
2023-03-03T03:55:32.554Z,26.20
2023-03-03T03:58:00.276Z,23.63
2023-03-03T04:00:27.920Z,23.23
2023-03-03T04:02:55.702Z,19.77
2023-03-03T04:05:25.011Z,17.73
2023-03-03T04:07:52.692Z,25.17
2023-03-03T04:10:20.666Z,23.10
2023-03-03T04:12:48.345Z,20.77
2023-03-03T04:15:16.289Z,21.50
2023-03-03T04:17:44.243Z,27.93
2023-03-03T04:20:15.206Z,21.87
2023-03-03T04:22:44.644Z,22.70
2023-03-03T04:25:15.379Z,24.23
2023-03-03T04:27:44.171Z,20.27
2023-03-03T04:30:13.592Z,22.03
2023-03-03T04:32:41.698Z,19.80
2023-03-03T04:35:10.558Z,22.90
2023-03-03T04:37:39.726Z,28.03
2023-03-03T04:40:10.827Z,29.93
2023-03-03T04:42:39.640Z,23.70
2023-03-03T04:45:08.689Z,24.57
2023-03-03T04:47:36.298Z,25.60
2023-03-03T04:50:04.379Z,23.43
2023-03-03T04:52:32.641Z,24.07
2023-03-03T04:55:00.276Z,26.47
2023-03-03T04:57:29.373Z,26.80
2023-03-03T04:59:56.972Z,26.37
2023-03-03T05:02:25.391Z,24.97
2023-03-03T05:04:53.412Z,31.40
2023-03-03T05:07:21.000Z,27.50
2023-03-03T05:09:48.882Z,21.73
2023-03-03T05:12:17.168Z,22.47
2023-03-03T05:14:46.355Z,22.93
2023-03-03T05:17:13.964Z,25.20
2023-03-03T05:19:41.981Z,23.63
2023-03-03T05:22:10.279Z,21.47
2023-03-03T05:24:38.115Z,24.97
2023-03-03T05:27:05.795Z,23.40
2023-03-03T05:29:33.487Z,24.57
2023-03-03T05:32:02.484Z,26.47
2023-03-03T05:34:30.137Z,21.27
2023-03-03T05:36:57.699Z,21.40
2023-03-03T05:39:25.370Z,24.53
2023-03-03T05:41:52.989Z,23.67
2023-03-03T05:44:20.830Z,28.63
2023-03-03T05:46:48.471Z,25.07
2023-03-03T05:49:17.537Z,33.63
2023-03-03T05:51:45.263Z,26.77
2023-03-03T05:54:12.927Z,25.97
2023-03-03T05:56:40.644Z,25.33
2023-03-03T05:59:08.265Z,22.13
2023-03-03T06:01:36.019Z,22.53
2023-03-03T06:04:03.746Z,26.70
2023-03-03T06:06:32.795Z,23.03
2023-03-03T06:09:00.624Z,23.87
2023-03-03T06:11:28.219Z,22.87
2023-03-03T06:13:55.887Z,23.90
2023-03-03T06:16:23.867Z,29.13
2023-03-03T06:18:51.584Z,35.53
2023-03-03T06:21:19.447Z,29.90
2023-03-03T06:23:48.386Z,28.57
2023-03-03T06:26:16.090Z,33.10
2023-03-03T06:28:43.725Z,29.13
2023-03-03T06:31:12.708Z,25.47
2023-03-03T06:33:42.162Z,23.87
2023-03-03T06:36:10.973Z,29.17
2023-03-03T06:38:38.808Z,26.10
2023-03-03T06:41:11.196Z,24.80
2023-03-03T06:43:38.973Z,22.33
2023-03-03T06:46:07.001Z,24.33
2023-03-03T06:48:35.228Z,22.77
2023-03-03T06:51:11.563Z,34.60
2023-03-03T06:53:39.627Z,25.93
2023-03-03T06:56:11.042Z,26.43
2023-03-03T06:58:38.775Z,27.30
2023-03-03T07:01:16.365Z,26.90
2023-03-03T07:03:44.232Z,20.67
2023-03-03T07:06:22.209Z,27.43
2023-03-03T07:08:49.973Z,23.83
2023-03-03T07:11:21.191Z,22.87
2023-03-03T07:13:51.372Z,27.17
2023-03-03T07:16:20.991Z,32.67
2023-03-03T07:18:55.416Z,27.20
2023-03-03T07:21:24.909Z,23.63
2023-03-03T07:23:54.543Z,28.20
2023-03-03T07:26:28.930Z,24.17
2023-03-03T07:29:01.313Z,27.20
2023-03-03T07:31:32.412Z,25.23
2023-03-03T07:34:01.370Z,25.27
2023-03-03T07:36:31.006Z,25.60
2023-03-03T07:39:01.217Z,22.23
2023-03-03T07:41:34.669Z,21.00
2023-03-03T07:44:06.776Z,22.40
2023-03-03T07:46:42.648Z,19.43
2023-03-03T07:49:22.820Z,22.73
2023-03-03T07:51:54.777Z,22.13
2023-03-03T07:54:31.134Z,20.53
2023-03-03T07:57:07.802Z,24.93
2023-03-03T07:59:37.867Z,23.23
2023-03-03T08:02:17.852Z,25.93
2023-03-03T08:04:50.815Z,25.27
2023-03-03T08:07:21.403Z,22.57
2023-03-03T08:09:51.999Z,24.77
2023-03-03T08:12:29.884Z,21.23
2023-03-03T08:15:09.090Z,19.87
2023-03-03T08:17:40.029Z,20.87
2023-03-03T08:20:51.328Z,23.60
2023-03-03T08:23:21.880Z,22.17
2023-03-03T08:25:51.204Z,27.90
2023-03-03T08:28:20.434Z,29.00
2023-03-03T08:30:49.062Z,23.07
2023-03-03T08:33:17.725Z,26.73
2023-03-03T08:35:46.029Z,22.30
2023-03-03T08:38:15.143Z,21.33
2023-03-03T08:40:43.321Z,19.97
2023-03-03T08:43:14.465Z,21.43
2023-03-03T08:45:43.720Z,23.57
2023-03-03T08:48:11.771Z,21.43
2023-03-03T08:50:40.053Z,22.50
2023-03-03T08:53:09.048Z,22.63
2023-03-03T08:55:36.661Z,31.00
2023-03-03T08:58:05.651Z,21.83
2023-03-03T09:00:33.635Z,29.83
2023-03-03T09:03:02.918Z,23.83
2023-03-03T09:05:31.433Z,27.33
2023-03-03T09:08:00.411Z,34.33
2023-03-03T09:10:31.741Z,33.73
2023-03-03T09:13:03.562Z,30.07
2023-03-03T09:15:34.090Z,33.03
2023-03-03T09:18:14.849Z,36.17
2023-03-03T09:20:43.921Z,32.87
2023-03-03T09:23:33.702Z,30.47
2023-03-03T09:26:23.260Z,34.77
2023-03-03T09:28:51.095Z,35.93
2023-03-03T09:31:26.282Z,34.63
2023-03-03T09:33:57.777Z,36.10
2023-03-03T09:36:27.948Z,32.63
2023-03-03T09:38:56.942Z,35.57
2023-03-03T09:41:45.521Z,39.00
2023-03-03T09:44:49.794Z,37.50
2023-03-03T09:47:31.451Z,39.93
2023-03-03T09:50:08.878Z,37.33
2023-03-03T09:52:49.153Z,38.23
2023-03-03T09:55:31.950Z,40.27
2023-03-03T09:58:14.563Z,36.10
2023-03-03T10:00:54.823Z,38.53
2023-03-03T10:03:58.000Z,50.37
2023-03-03T10:06:32.901Z,38.17
2023-03-03T10:09:29.299Z,47.73
2023-03-03T10:12:03.914Z,33.17
2023-03-03T10:14:50.886Z,36.90
2023-03-03T10:17:31.090Z,37.63
2023-03-03T10:20:18.360Z,45.17
2023-03-03T10:22:53.237Z,43.87
2023-03-03T10:25:30.718Z,43.53
2023-03-03T10:28:16.359Z,40.83
2023-03-03T10:31:04.881Z,41.47
2023-03-03T10:33:45.099Z,38.43
2023-03-03T10:36:35.400Z,48.47
2023-03-03T10:39:19.476Z,44.93
2023-03-03T10:42:16.290Z,42.23
2023-03-03T10:45:06.164Z,46.30
2023-03-03T10:47:44.617Z,46.77
2023-03-03T10:50:18.278Z,43.13
2023-03-03T10:52:49.873Z,43.03
2023-03-03T10:55:26.955Z,48.33
2023-03-03T10:58:20.903Z,47.03
2023-03-03T11:00:52.609Z,41.50
2023-03-03T11:04:01.275Z,39.30
2023-03-03T11:06:40.507Z,38.17
2023-03-03T11:09:19.422Z,41.23
2023-03-03T11:11:55.699Z,34.40
2023-03-03T11:14:30.812Z,36.83
2023-03-03T11:17:04.061Z,40.73
2023-03-03T11:19:47.326Z,41.73
2023-03-03T11:22:29.659Z,44.57
2023-03-03T11:25:06.100Z,43.87
2023-03-03T11:27:52.661Z,41.60
2023-03-03T11:30:35.577Z,40.80
2023-03-03T11:33:07.568Z,46.10
2023-03-03T11:35:45.215Z,39.07
2023-03-03T11:38:29.417Z,47.23
2023-03-03T11:40:59.984Z,47.80
2023-03-03T11:43:36.914Z,53.87
2023-03-03T11:46:09.900Z,41.27
2023-03-03T11:48:47.206Z,46.10
2023-03-03T11:51:21.061Z,38.77
2023-03-03T11:53:58.242Z,36.23
2023-03-03T11:56:30.809Z,34.77
2023-03-03T11:59:15.037Z,36.90
2023-03-03T12:01:48.493Z,32.80
2023-03-03T12:04:21.492Z,37.97
2023-03-03T12:07:16.828Z,47.37
2023-03-03T12:09:56.122Z,49.30
2023-03-03T12:12:26.116Z,44.57
2023-03-03T12:15:09.428Z,52.60
2023-03-03T12:17:52.626Z,39.57
2023-03-03T12:20:29.901Z,35.20
2023-03-03T12:23:09.613Z,46.03
2023-03-03T12:25:41.848Z,37.10
2023-03-03T12:28:16.144Z,43.67
2023-03-03T12:31:02.290Z,35.90
2023-03-03T12:33:46.990Z,35.07
2023-03-03T12:36:46.165Z,36.50
2023-03-03T12:39:34.671Z,37.57
2023-03-03T12:42:11.533Z,41.07
2023-03-03T12:44:44.754Z,46.00
2023-03-03T12:47:22.881Z,35.50
2023-03-03T12:50:08.347Z,41.60
2023-03-03T12:52:49.887Z,37.57
2023-03-03T12:55:38.067Z,36.27
2023-03-03T12:58:17.611Z,39.87
2023-03-03T13:00:56.463Z,33.33
2023-03-03T13:03:53.289Z,33.57
2023-03-03T13:06:30.115Z,43.93
2023-03-03T13:09:18.253Z,39.83
2023-03-03T13:12:01.834Z,38.17
2023-03-03T13:14:36.673Z,42.20
2023-03-03T13:17:16.737Z,32.97
2023-03-03T13:19:50.535Z,40.23
2023-03-03T13:22:36.373Z,37.67
2023-03-03T13:25:10.036Z,40.83
2023-03-03T13:27:41.901Z,35.43
2023-03-03T13:30:18.129Z,36.13
2023-03-03T13:32:50.838Z,34.07
2023-03-03T13:35:31.504Z,30.80
2023-03-03T13:38:00.212Z,29.53
2023-03-03T13:40:35.323Z,36.60
2023-03-03T13:43:11.078Z,39.50
2023-03-03T13:45:49.324Z,40.93
2023-03-03T13:48:31.363Z,32.10
2023-03-03T13:51:10.027Z,37.47
2023-03-03T13:53:50.461Z,32.10
2023-03-03T13:56:49.514Z,38.13
2023-03-03T13:59:29.836Z,26.73
2023-03-03T14:02:05.086Z,35.00
2023-03-03T14:04:48.346Z,34.83
2023-03-03T14:07:22.898Z,38.03
2023-03-03T14:10:03.552Z,34.97
2023-03-03T14:12:43.438Z,33.87
2023-03-03T14:15:22.120Z,34.77
2023-03-03T14:18:15.509Z,33.77
2023-03-03T14:20:49.117Z,40.67
2023-03-03T14:23:24.238Z,32.43
2023-03-03T14:26:08.980Z,34.17
2023-03-03T14:28:41.637Z,35.93
2023-03-03T14:31:19.530Z,28.97
2023-03-03T14:33:59.216Z,24.37
2023-03-03T14:36:32.076Z,36.67
2023-03-03T14:39:03.562Z,35.90
2023-03-03T14:41:40.117Z,32.67
2023-03-03T14:44:28.597Z,34.93
2023-03-03T14:47:21.019Z,31.30
2023-03-03T14:49:49.284Z,37.20
2023-03-03T14:52:24.785Z,30.00
2023-03-03T14:54:55.797Z,31.30
2023-03-03T14:57:46.310Z,30.73
2023-03-03T15:00:35.877Z,32.57
2023-03-03T15:03:19.473Z,28.43
2023-03-03T15:05:51.091Z,25.43
2023-03-03T15:08:28.974Z,29.07
2023-03-03T15:11:17.440Z,26.17
2023-03-03T15:13:45.453Z,20.97
2023-03-03T15:16:19.751Z,22.87
2023-03-03T15:19:20.495Z,16.93
2023-03-03T15:21:59.587Z,32.57
2023-03-03T15:24:36.220Z,24.70
2023-03-03T15:27:13.556Z,25.60
2023-03-03T15:29:56.500Z,27.83
2023-03-03T15:32:31.036Z,30.83
2023-03-03T15:35:07.760Z,39.87
2023-03-03T15:37:47.232Z,40.93
2023-03-03T15:40:25.815Z,30.97
2023-03-03T15:43:03.118Z,39.63
2023-03-03T15:45:35.575Z,43.47
2023-03-03T15:48:14.830Z,39.10
2023-03-03T15:50:56.988Z,42.87
2023-03-03T15:53:37.752Z,50.20
2023-03-03T15:56:16.971Z,42.93
2023-03-03T15:59:08.420Z,42.17
2023-03-03T16:01:42.467Z,37.97
2023-03-03T16:04:14.293Z,40.10
2023-03-03T16:06:50.357Z,37.47
2023-03-03T16:09:30.470Z,49.70
2023-03-03T16:12:09.903Z,48.80
2023-03-03T16:14:59.929Z,46.03
2023-03-03T16:17:36.613Z,54.67
2023-03-03T16:20:20.641Z,57.40
2023-03-03T16:23:09.704Z,56.27
2023-03-03T16:25:55.713Z,59.27
2023-03-03T16:28:28.522Z,55.97
2023-03-03T16:31:04.164Z,58.83
2023-03-03T16:33:43.772Z,49.47
2023-03-03T16:36:29.224Z,70.20
2023-03-03T16:39:04.722Z,54.80
2023-03-03T16:41:44.053Z,58.03
2023-03-03T16:44:20.757Z,45.70
2023-03-03T16:46:50.872Z,45.93
2023-03-03T16:49:26.750Z,49.50
2023-03-03T16:52:01.392Z,49.03
2023-03-03T16:54:36.063Z,43.00
2023-03-03T16:57:13.782Z,34.93
2023-03-03T16:59:56.601Z,38.30
2023-03-03T17:02:46.453Z,38.47
2023-03-03T17:05:25.306Z,44.50
2023-03-03T17:08:08.392Z,32.23
2023-03-03T17:10:48.358Z,34.13
2023-03-03T17:13:36.743Z,33.67
2023-03-03T17:16:13.071Z,34.87
2023-03-03T17:18:53.606Z,40.93
2023-03-03T17:21:33.850Z,31.83
2023-03-03T17:24:14.139Z,31.00
2023-03-03T17:26:52.786Z,37.27
2023-03-03T17:29:38.077Z,34.53
2023-03-03T17:32:16.296Z,28.10
2023-03-03T17:34:56.049Z,35.43
2023-03-03T17:37:35.485Z,33.37
2023-03-03T17:40:22.941Z,34.43
2023-03-03T17:42:58.470Z,33.40
2023-03-03T17:45:29.060Z,33.57
2023-03-03T17:48:17.528Z,32.03
2023-03-03T17:51:07.240Z,30.93
2023-03-03T17:54:08.805Z,32.53
2023-03-03T17:56:49.740Z,31.07
2023-03-03T17:59:39.519Z,30.00
2023-03-03T18:02:44.341Z,29.80
2023-03-03T18:05:41.414Z,32.87
2023-03-03T18:08:28.446Z,31.13
2023-03-03T18:11:36.398Z,25.97
2023-03-03T18:14:32.116Z,25.57
2023-03-03T18:17:35.006Z,23.30
2023-03-03T18:20:32.141Z,29.23
2023-03-03T18:23:24.855Z,28.83
2023-03-03T18:25:55.206Z,30.77
2023-03-03T18:28:24.252Z,23.63
2023-03-03T18:30:58.545Z,25.67
2023-03-03T18:33:44.491Z,26.37
2023-03-03T18:36:16.447Z,29.73
2023-03-03T18:38:49.229Z,23.73
2023-03-03T18:41:24.529Z,24.13
2023-03-03T18:43:56.066Z,23.20
2023-03-03T18:46:47.352Z,30.07
2023-03-03T18:49:16.901Z,26.73
2023-03-03T18:52:12.993Z,27.17
2023-03-03T18:54:42.137Z,23.03
2023-03-03T18:57:16.885Z,31.33
2023-03-03T18:59:59.321Z,34.60
2023-03-03T19:02:38.855Z,32.00
2023-03-03T19:05:18.077Z,24.87
2023-03-03T19:07:57.575Z,34.23
2023-03-03T19:10:56.206Z,29.77
2023-03-03T19:13:42.468Z,24.00
2023-03-03T19:16:12.329Z,22.13
2023-03-03T19:19:00.357Z,22.90
2023-03-03T19:21:31.642Z,20.87
2023-03-03T19:24:01.314Z,23.77
2023-03-03T19:26:50.232Z,24.43
2023-03-03T19:29:55.172Z,24.73
2023-03-03T19:32:36.258Z,29.97
2023-03-03T19:35:19.833Z,25.03
2023-03-03T19:37:56.729Z,19.87
2023-03-03T19:40:35.097Z,25.83
2023-03-03T19:43:16.502Z,25.37
2023-03-03T19:45:55.748Z,19.87
2023-03-03T19:48:32.735Z,22.90
2023-03-03T19:51:10.267Z,25.40
2023-03-03T19:53:48.226Z,17.70
2023-03-03T19:56:21.329Z,18.70
2023-03-03T19:59:20.824Z,24.50
2023-03-03T20:01:59.312Z,21.43
2023-03-03T20:04:40.835Z,21.27
2023-03-03T20:07:24.024Z,21.53
2023-03-03T20:10:02.415Z,21.27
2023-03-03T20:12:40.094Z,19.87
2023-03-03T20:15:15.379Z,21.73
2023-03-03T20:17:52.156Z,26.80
2023-03-03T20:20:51.150Z,18.90
2023-03-03T20:23:24.064Z,18.80
2023-03-03T20:25:56.445Z,22.53
2023-03-03T20:28:58.626Z,20.83
2023-03-03T20:31:36.625Z,20.47
2023-03-03T20:34:12.135Z,17.33
2023-03-03T20:36:50.131Z,18.17
2023-03-03T20:39:29.461Z,15.63
2023-03-03T20:42:06.042Z,18.43
2023-03-03T20:44:51.260Z,19.90
2023-03-03T20:47:32.127Z,23.47
2023-03-03T20:50:16.435Z,15.60
2023-03-03T20:52:57.179Z,20.47
2023-03-03T20:55:36.283Z,15.57
2023-03-03T20:58:10.652Z,16.23
2023-03-03T21:00:44.566Z,18.53
2023-03-03T21:03:20.556Z,15.60
2023-03-03T21:05:59.737Z,15.13
2023-03-03T21:08:53.584Z,15.67
2023-03-03T21:11:22.964Z,22.50
2023-03-03T21:13:54.117Z,19.30
2023-03-03T21:16:33.499Z,14.47
2023-03-03T21:19:04.006Z,18.53
2023-03-03T21:21:34.400Z,14.40
2023-03-03T21:24:02.199Z,13.07
2023-03-03T21:26:50.854Z,16.73
2023-03-03T21:29:29.153Z,13.87
2023-03-03T21:31:59.139Z,14.33
2023-03-03T21:34:30.771Z,18.30
2023-03-03T21:36:59.446Z,13.50
2023-03-03T21:39:30.717Z,12.17
2023-03-03T21:42:01.520Z,10.40
2023-03-03T21:44:38.487Z,17.23
2023-03-03T21:47:07.620Z,16.07
2023-03-03T21:49:37.418Z,15.13
2023-03-03T21:52:05.365Z,16.23
2023-03-03T21:54:33.086Z,17.87
2023-03-03T21:57:00.780Z,10.90
2023-03-03T21:59:28.666Z,18.00
2023-03-03T22:01:56.471Z,10.53
2023-03-03T22:04:24.543Z,10.20
2023-03-03T22:06:53.569Z,8.03
2023-03-03T22:09:21.259Z,7.50
2023-03-03T22:11:48.930Z,13.30
2023-03-03T22:14:16.906Z,12.33
2023-03-03T22:16:44.613Z,7.73
2023-03-03T22:19:12.318Z,11.90
2023-03-03T22:21:40.685Z,10.17
2023-03-03T22:24:10.075Z,14.80
2023-03-03T22:26:37.757Z,14.70
2023-03-03T22:29:06.429Z,6.63
2023-03-03T22:31:34.189Z,10.73
2023-03-03T22:34:01.913Z,12.50
2023-03-03T22:36:29.795Z,11.17
2023-03-03T22:38:57.452Z,8.17
2023-03-03T22:41:26.529Z,9.20
2023-03-03T22:43:54.186Z,6.43
2023-03-03T22:46:21.879Z,5.97
2023-03-03T22:48:49.552Z,18.10
2023-03-03T22:51:18.265Z,11.57
2023-03-03T22:53:45.871Z,8.27
2023-03-03T22:56:13.520Z,14.37
2023-03-03T22:58:43.708Z,6.87
2023-03-03T23:01:11.413Z,7.50
2023-03-03T23:03:39.285Z,10.13
2023-03-03T23:06:07.687Z,4.87
2023-03-03T23:08:35.346Z,10.50
2023-03-03T23:11:02.962Z,9.83
2023-03-03T23:13:31.718Z,9.27
2023-03-03T23:16:02.429Z,9.60
2023-03-03T23:18:30.336Z,9.50
2023-03-03T23:20:58.029Z,10.97
2023-03-03T23:23:25.974Z,8.53
2023-03-03T23:25:53.628Z,6.47
2023-03-03T23:28:21.534Z,13.70
2023-03-03T23:30:51.752Z,13.07
2023-03-03T23:33:21.424Z,16.43
2023-03-03T23:35:49.859Z,7.60
2023-03-03T23:38:17.765Z,10.67
2023-03-03T23:40:46.593Z,6.10
2023-03-03T23:43:14.470Z,10.47
2023-03-03T23:45:42.107Z,12.67
2023-03-03T23:48:09.989Z,17.07
2023-03-03T23:50:39.219Z,11.27
2023-03-03T23:53:08.139Z,11.87
2023-03-03T23:55:37.484Z,5.23
2023-03-03T23:58:05.877Z,5.27
